createdAt,value
2023-03-06T00:00:58.580Z,2.28
2023-03-06T00:06:05.132Z,2.21
2023-03-06T00:11:08.169Z,2.14
2023-03-06T00:16:11.671Z,2.07
2023-03-06T00:21:16.031Z,2.03
2023-03-06T00:26:19.079Z,1.99
2023-03-06T00:38:35.667Z,1.61
2023-03-06T00:43:40.755Z,1.78
2023-03-06T00:48:45.089Z,1.72
2023-03-06T00:53:48.478Z,1.63
2023-03-06T00:58:52.903Z,1.62
2023-03-06T01:03:55.897Z,1.59
2023-03-06T01:08:58.934Z,1.53
2023-03-06T01:14:05.598Z,1.56
2023-03-06T01:19:08.577Z,1.46
2023-03-06T01:24:11.511Z,1.49
2023-03-06T01:29:15.955Z,1.48
2023-03-06T01:34:19.151Z,1.52
2023-03-06T01:39:22.438Z,1.59
2023-03-06T01:51:30.044Z,1.58
2023-03-06T01:56:33.456Z,1.46
2023-03-06T02:01:36.737Z,1.32
2023-03-06T02:06:44.276Z,1.29
2023-03-06T02:11:47.372Z,1.26
2023-03-06T02:16:51.557Z,1.20
2023-03-06T02:21:56.704Z,1.26
2023-03-06T02:27:04.051Z,1.25
2023-03-06T02:32:08.038Z,1.35
2023-03-06T02:37:12.258Z,1.33
2023-03-06T02:42:22.552Z,1.34
2023-03-06T02:47:26.031Z,1.24
2023-03-06T02:52:29.051Z,1.24
2023-03-06T02:57:33.626Z,1.23
2023-03-06T03:02:37.004Z,1.23
2023-03-06T03:07:40.274Z,1.22
2023-03-06T03:12:46.345Z,1.21
2023-03-06T03:17:52.905Z,1.24
2023-03-06T03:22:57.290Z,1.30
2023-03-06T03:28:01.776Z,1.30
2023-03-06T03:33:05.899Z,1.39
2023-03-06T03:38:09.027Z,1.48
2023-03-06T03:43:13.630Z,1.59
2023-03-06T03:48:16.783Z,1.69
2023-03-06T03:53:20.244Z,1.71
2023-03-06T03:58:25.653Z,1.72
2023-03-06T04:03:28.938Z,1.79
2023-03-06T04:08:32.560Z,1.86
2023-03-06T04:13:37.510Z,1.92
2023-03-06T04:18:41.903Z,1.94
2023-03-06T04:23:45.085Z,1.95
2023-03-06T04:28:49.965Z,1.95
2023-03-06T04:33:53.426Z,1.92
2023-03-06T04:38:56.513Z,2.01
2023-03-06T04:44:01.318Z,2.02
2023-03-06T04:49:07.474Z,2.11
2023-03-06T04:54:10.504Z,2.06
2023-03-06T04:59:14.889Z,2.13
2023-03-06T05:04:17.881Z,2.15
2023-03-06T05:09:20.891Z,2.15
2023-03-06T05:14:25.403Z,2.13
2023-03-06T05:19:28.493Z,2.11
2023-03-06T05:24:31.458Z,2.18
2023-03-06T05:29:35.779Z,2.22
2023-03-06T05:34:40.237Z,2.21
2023-03-06T05:39:43.258Z,2.26
2023-03-06T05:44:47.766Z,2.32
2023-03-06T05:49:51.178Z,2.34
2023-03-06T05:54:55.503Z,2.31
2023-03-06T05:59:59.879Z,2.41
2023-03-06T06:05:13.185Z,2.44
2023-03-06T06:10:17.718Z,2.45
2023-03-06T06:15:22.205Z,2.49
2023-03-06T06:20:26.213Z,2.53
2023-03-06T06:25:29.383Z,2.57
2023-03-06T06:30:34.321Z,2.61
2023-03-06T06:35:38.055Z,2.67
2023-03-06T06:40:41.111Z,2.65
2023-03-06T06:45:45.684Z,2.66
2023-03-06T06:50:56.611Z,2.71
2023-03-06T06:56:00.844Z,2.76
2023-03-06T07:01:08.245Z,2.90
2023-03-06T07:06:11.568Z,2.94
2023-03-06T07:11:17.479Z,3.00
2023-03-06T07:16:21.953Z,3.03
2023-03-06T07:21:25.071Z,3.09
2023-03-06T07:26:29.844Z,3.13
2023-03-06T07:31:34.280Z,3.12
2023-03-06T07:36:37.306Z,3.31
2023-03-06T07:41:40.360Z,3.40
2023-03-06T07:46:50.864Z,3.47
2023-03-06T07:51:55.793Z,3.44
2023-03-06T07:56:58.778Z,3.47
2023-03-06T08:02:03.846Z,3.53
2023-03-06T08:07:07.165Z,3.61
2023-03-06T08:12:10.584Z,3.70
2023-03-06T08:17:17.918Z,3.84
2023-03-06T08:22:20.993Z,3.78
2023-03-06T08:27:24.238Z,3.83
2023-03-06T08:32:29.299Z,3.97
2023-03-06T08:37:32.284Z,4.02
2023-03-06T08:42:35.345Z,4.27
2023-03-06T08:47:39.869Z,4.45
2023-03-06T08:52:42.988Z,4.81
2023-03-06T08:57:46.804Z,4.84
2023-03-06T09:02:51.209Z,5.21
2023-03-06T09:07:55.407Z,5.74
2023-03-06T09:12:58.533Z,6.15
2023-03-06T09:18:05.925Z,6.52
2023-03-06T09:23:09.897Z,6.93
2023-03-06T09:28:13.444Z,7.02
2023-03-06T09:33:18.614Z,7.23
2023-03-06T09:38:23.231Z,7.50
2023-03-06T09:43:30.404Z,7.53
2023-03-06T09:48:43.097Z,7.56
2023-03-06T09:54:00.193Z,7.52
2023-03-06T09:59:13.357Z,7.79
2023-03-06T10:04:33.433Z,7.88
2023-03-06T10:09:43.244Z,7.73
2023-03-06T10:15:06.932Z,7.78
2023-03-06T10:20:18.814Z,8.00
2023-03-06T10:25:28.142Z,7.95
2023-03-06T10:30:42.264Z,7.82
2023-03-06T10:35:50.770Z,7.89
2023-03-06T10:41:08.202Z,7.76
2023-03-06T10:46:15.878Z,7.62
2023-03-06T10:51:23.234Z,7.48
2023-03-06T10:56:33.837Z,7.66
2023-03-06T11:01:37.220Z,7.90
2023-03-06T11:06:42.017Z,7.72
2023-03-06T11:11:45.173Z,7.90
2023-03-06T11:16:53.146Z,8.01
2023-03-06T11:22:05.399Z,8.18
2023-03-06T11:27:23.821Z,8.43
2023-03-06T11:32:31.044Z,8.71
2023-03-06T11:37:47.034Z,8.98
2023-03-06T11:43:00.404Z,9.30
2023-03-06T11:48:21.012Z,9.52
2023-03-06T11:53:33.509Z,9.65
2023-03-06T11:59:01.923Z,9.61
2023-03-06T12:04:40.382Z,9.66
2023-03-06T12:09:49.621Z,9.65
2023-03-06T12:15:07.980Z,9.83
2023-03-06T12:20:35.627Z,9.68
2023-03-06T12:25:45.144Z,9.72
2023-03-06T12:31:15.415Z,9.82
2023-03-06T12:36:34.345Z,9.76
2023-03-06T12:42:00.355Z,9.78
2023-03-06T12:47:05.201Z,9.86
2023-03-06T12:52:11.060Z,9.92
2023-03-06T12:57:16.307Z,9.67
2023-03-06T13:02:46.567Z,9.67
2023-03-06T13:08:01.934Z,9.32
2023-03-06T13:13:30.729Z,9.08
2023-03-06T13:19:13.161Z,9.00
2023-03-06T13:24:21.236Z,9.04
2023-03-06T13:30:04.255Z,9.41
2023-03-06T13:35:40.570Z,9.41
2023-03-06T13:40:43.618Z,9.28
2023-03-06T13:45:49.981Z,9.51
2023-03-06T13:50:55.581Z,9.48
2023-03-06T13:56:25.432Z,9.54
2023-03-06T14:01:43.619Z,9.71
2023-03-06T14:07:20.803Z,9.77
2023-03-06T14:12:26.997Z,9.76
2023-03-06T14:17:36.402Z,9.58
2023-03-06T14:22:39.534Z,9.71
2023-03-06T14:27:45.875Z,9.66
2023-03-06T14:32:52.852Z,9.58
2023-03-06T14:37:59.956Z,9.30
2023-03-06T14:43:21.939Z,8.93
2023-03-06T14:48:28.844Z,8.63
2023-03-06T14:53:33.865Z,8.41
2023-03-06T14:58:42.918Z,8.43
2023-03-06T15:03:50.939Z,8.67
2023-03-06T15:09:01.758Z,8.69
2023-03-06T15:14:07.729Z,8.57
2023-03-06T15:19:21.585Z,8.04
2023-03-06T15:24:34.224Z,7.79
2023-03-06T15:29:40.178Z,7.73
2023-03-06T15:34:44.797Z,7.62
2023-03-06T15:40:09.392Z,7.25
2023-03-06T15:45:18.936Z,7.20
2023-03-06T15:50:25.147Z,7.01
2023-03-06T15:55:28.369Z,7.01
2023-03-06T16:00:34.189Z,7.02
2023-03-06T16:05:38.687Z,7.02
2023-03-06T16:10:44.355Z,6.94
2023-03-06T16:15:51.795Z,6.83
2023-03-06T16:20:56.427Z,6.59
2023-03-06T16:25:59.436Z,6.58
2023-03-06T16:31:04.930Z,6.44
2023-03-06T16:36:14.672Z,6.31
2023-03-06T16:41:19.539Z,6.33
2023-03-06T16:46:25.115Z,6.20
2023-03-06T16:51:40.997Z,6.04
2023-03-06T16:56:44.643Z,5.96
2023-03-06T17:01:50.442Z,5.88
2023-03-06T17:06:55.236Z,5.75
2023-03-06T17:11:58.351Z,5.69
2023-03-06T17:17:06.990Z,5.43
2023-03-06T17:22:20.855Z,5.48
2023-03-06T17:27:24.642Z,5.34
2023-03-06T17:32:28.694Z,5.35
2023-03-06T17:37:33.831Z,5.19
2023-03-06T17:42:37.322Z,4.99
2023-03-06T17:47:43.530Z,4.97
2023-03-06T17:52:47.989Z,4.97
2023-03-06T17:57:53.025Z,4.78
2023-03-06T18:02:56.080Z,4.81
2023-03-06T18:08:04.835Z,4.82
2023-03-06T18:13:08.339Z,4.74
2023-03-06T18:18:11.338Z,4.72
2023-03-06T18:23:16.085Z,4.67
2023-03-06T18:28:19.578Z,4.71
2023-03-06T18:33:22.961Z,4.59
2023-03-06T18:38:27.488Z,4.54
2023-03-06T18:43:30.739Z,4.49
2023-03-06T18:48:34.170Z,4.40
2023-03-06T18:53:39.840Z,4.31
2023-03-06T18:58:42.919Z,4.27
2023-03-06T19:03:46.048Z,4.21
2023-03-06T19:08:50.805Z,4.15
2023-03-06T19:13:54.054Z,4.16
2023-03-06T19:18:57.584Z,4.10
2023-03-06T19:24:03.697Z,4.08
2023-03-06T19:29:06.794Z,4.05
2023-03-06T19:34:11.185Z,4.02
2023-03-06T19:39:15.866Z,4.03
2023-03-06T19:44:19.043Z,4.02
2023-03-06T19:49:22.271Z,4.02
2023-03-06T19:54:27.164Z,4.02
2023-03-06T19:59:30.972Z,4.03
2023-03-06T20:04:34.769Z,4.00
2023-03-06T20:09:39.581Z,4.09
2023-03-06T20:14:43.573Z,4.11
2023-03-06T20:19:49.406Z,4.11
2023-03-06T20:24:54.158Z,4.15
2023-03-06T20:29:57.251Z,4.24
2023-03-06T20:35:00.408Z,4.27
2023-03-06T20:40:08.282Z,4.33
2023-03-06T20:45:12.095Z,4.36
2023-03-06T20:50:16.166Z,4.38
2023-03-06T20:55:20.620Z,4.36
2023-03-06T21:00:23.730Z,4.42
2023-03-06T21:05:26.791Z,4.47
2023-03-06T21:10:34.050Z,4.47
2023-03-06T21:15:39.626Z,4.49
2023-03-06T21:20:43.049Z,4.45
2023-03-06T21:25:52.066Z,4.41
2023-03-06T21:30:55.409Z,4.36
2023-03-06T21:35:58.578Z,4.37
2023-03-06T21:41:10.345Z,4.41
2023-03-06T21:46:15.066Z,4.44
2023-03-06T21:51:20.163Z,4.43
2023-03-06T21:56:28.568Z,4.34
2023-03-06T22:01:31.986Z,4.50
2023-03-06T22:06:35.494Z,4.53
2023-03-06T22:11:40.141Z,4.56
2023-03-06T22:16:43.435Z,4.49
2023-03-06T22:21:46.466Z,4.57
2023-03-06T22:26:51.012Z,4.61
2023-03-06T22:31:54.156Z,4.61
2023-03-06T22:37:00.017Z,4.59
2023-03-06T22:42:05.672Z,4.54
2023-03-06T22:47:08.679Z,4.58
2023-03-06T22:52:15.373Z,4.43
2023-03-06T22:57:19.922Z,4.58
2023-03-06T23:02:22.910Z,4.56
2023-03-06T23:07:26.136Z,4.54
2023-03-06T23:12:38.080Z,4.47
2023-03-06T23:18:00.108Z,4.40
2023-03-06T23:23:22.625Z,4.33
2023-03-06T23:28:27.452Z,4.27
2023-03-06T23:33:33.691Z,4.31
2023-03-06T23:38:36.842Z,4.37
2023-03-06T23:43:41.640Z,4.38
2023-03-06T23:48:46.226Z,4.39
2023-03-06T23:53:55.630Z,4.40
2023-03-06T23:58:59.934Z,4.38
